Time;durP1;ratioP1;P1;durP2;ratioP2;P2;SDS_P1;SDS_P2;PMS_P1;PMS_P2;Temp;Humidity;BMP_temperature;BMP_pressure;BME280_temperature;BME280_humidity;BME280_pressure;Samples;Min_cycle;Max_cycle;Signal;HPM_P1;HPM_P2
2021/07/06 06:28:08;;;;;;;;;;;;;;;;;;;;;
2021/07/06 06:31:20;;;;;;;2.40;2.20;;;27.20;1.00;;;;;;4962663;28;20508;-92
2021/07/06 06:34:24;;;;;;;1.93;1.83;;;27.50;1.00;;;;;;4956118;23;20493;-94
2021/07/06 06:36:50;;;;;;;2.67;1.80;;;28.00;99.90;;;;;;4866025;29;20455;-92
2021/07/06 06:39:42;;;;;;;;;;;;;;;;;;;;;
2021/07/06 06:42:17;;;;;;;4.30;2.50;;;24.70;99.90;;;;;;4900695;29;20561;-93
2021/07/06 06:44:42;;;;;;;2.93;2.00;;;24.40;1.00;;;;;;4865619;29;20865;-88
2021/07/06 06:47:08;;;;;;;2.40;1.90;;;24.40;1.00;;;;;;4865148;29;20471;-89
2021/07/06 06:50:16;;;;;;;2.20;2.00;;;24.10;1.00;;;;;;4864408;29;20183;-91
2021/07/06 06:52:42;;;;;;;4.60;1.90;;;24.30;1.00;;;;;;4863146;29;20201;-89
2021/07/06 06:55:12;;;;;;;2.00;1.50;;;24.40;99.90;;;;;;4875534;29;20431;-94
2021/07/06 06:57:47;;;;;;;3.93;2.43;;;25.00;99.90;;;;;;4883748;29;20529;-92
2021/07/06 07:00:16;;;;;;;2.43;1.80;;;24.90;99.90;;;;;;4889278;29;20465;-94
2021/07/06 07:02:43;;;;;;;2.37;2.00;;;25.90;28.50;;;;;;4865690;29;20495;-93
2021/07/06 07:05:12;;;;;;;3.90;1.83;;;26.20;1.00;;;;;;4867849;29;20450;-92
2021/07/06 07:07:37;;;;;;;2.90;1.77;;;25.60;99.90;;;;;;4870073;29;20485;-94
2021/07/06 07:10:19;;;;;;;2.70;2.47;;;24.70;1.00;;;;;;4875737;29;20522;-95
2021/07/06 07:12:45;;;;;;;3.60;2.10;;;24.30;99.90;;;;;;4879010;29;20202;-93
2021/07/06 07:15:11;;;;;;;3.10;2.00;;;24.00;99.90;;;;;;4881065;29;20795;-93
2021/07/06 07:33:17;;;;;;;2.00;1.80;;;23.70;22.20;;;;;;4922612;29;20484;-92
2021/07/06 07:35:43;;;;;;;2.23;1.70;;;24.10;1.00;;;;;;4920224;29;20453;-91
2021/07/06 07:38:09;;;;;;;2.10;1.90;;;25.20;99.90;;;;;;4918211;29;20196;-91
2021/07/06 07:40:34;;;;;;;3.10;2.10;;;26.80;1.00;;;;;;4917949;29;20190;-88
2021/07/06 07:43:06;;;;;;;1.40;1.30;;;27.10;1.00;;;;;;4917164;29;20333;-87
2021/07/06 07:50:38;;;;;;;2.50;1.60;;;26.30;99.90;;;;;;4962009;28;20449;-90
2021/07/06 07:53:03;;;;;;;1.77;1.67;;;26.30;1.00;;;;;;4962436;28;20452;-89
2021/07/06 07:55:32;;;;;;;1.53;1.37;;;25.90;21.10;;;;;;4962611;28;20198;-90
2021/07/06 07:58:12;;;;;;;1.70;1.50;;;26.30;1.00;;;;;;4963036;28;20177;-90
2021/07/06 08:00:43;;;;;;;2.20;1.97;;;26.70;1.00;;;;;;4962187;28;20452;-91
2021/07/06 08:03:38;;;;;;;2.30;1.50;;;26.80;1.00;;;;;;4961750;28;20444;-92
2021/07/06 08:06:04;;;;;;;1.50;1.40;;;26.30;99.90;;;;;;4962093;28;20518;-93
2021/07/06 08:08:30;;;;;;;2.87;1.40;;;26.00;1.00;;;;;;4962161;28;20471;-91
2021/07/06 08:11:00;;;;;;;1.93;1.73;;;25.80;99.90;;;;;;4962448;28;20189;-89
2021/07/06 08:13:35;;;;;;;3.53;1.57;;;25.50;1.00;;;;;;4961858;28;20191;-89
2021/07/06 08:23:40;;;;;;;2.10;1.90;;;25.70;1.00;;;;;;4927641;29;20481;-88
2021/07/06 08:26:06;;;;;;;2.63;1.53;;;25.80;1.00;;;;;;4926277;29;20467;-89
2021/07/06 08:28:32;;;;;;;1.93;1.77;;;25.60;99.90;;;;;;5168485;23;20246;-89
2021/07/06 08:30:58;;;;;;;1.60;1.50;;;25.80;99.90;;;;;;4945494;29;20455;-91
2021/07/06 08:33:23;;;;;;;3.83;1.77;;;25.70;99.90;;;;;;4951138;29;20192;-87
2021/07/06 08:35:49;;;;;;;2.97;1.90;;;25.70;1.00;;;;;;4951056;28;20204;-90
2021/07/06 08:38:15;;;;;;;2.13;1.93;;;25.70;1.00;;;;;;4947976;29;20648;-89
2021/07/06 08:40:41;;;;;;;3.17;1.73;;;25.70;1.00;;;;;;4950707;29;20176;-90
2021/07/06 08:43:07;;;;;;;4.90;1.97;;;26.30;99.90;;;;;;4956722;28;20199;-90
2021/07/06 08:45:34;;;;;;;3.83;1.77;;;26.70;1.00;;;;;;4946759;29;20447;-90
2021/07/06 08:48:00;;;;;;;1.60;1.50;;;26.70;99.90;;;;;;4954466;29;20216;-88
2021/07/06 08:50:27;;;;;;;1.83;1.70;;;27.20;99.90;;;;;;4947009;29;20439;-90
2021/07/06 08:52:53;;;;;;;2.07;1.90;;;28.00;1.00;;;;;;4952060;29;20427;-93
2021/07/06 08:55:20;;;;;;;1.80;1.70;;;28.00;99.90;;;;;;4949595;29;20456;-92
2021/07/06 08:57:47;;;;;;;3.47;1.97;;;27.60;1.00;;;;;;4946272;29;20439;-91
2021/07/06 09:00:18;;;;;;;3.03;2.43;;;27.50;1.00;;;;;;4958068;29;20463;-91
2021/07/06 09:03:02;;;;;;;2.57;2.10;;;27.30;1.00;;;;;;4964328;28;20436;-85
2021/07/06 09:05:28;;;;;;;4.37;2.10;;;27.00;99.90;;;;;;4963001;28;20475;-91
2021/07/06 09:07:54;;;;;;;2.70;2.07;;;26.80;99.90;;;;;;4964490;28;20468;-88
2021/07/06 09:10:25;;;;;;;2.40;1.90;;;26.80;99.90;;;;;;4964312;28;20520;-91
2021/07/06 09:12:51;;;;;;;5.90;3.90;;;26.80;34.50;;;;;;4964696;28;20438;-91
2021/07/06 09:15:32;;;;;;;2.03;1.83;;;27.20;1.00;;;;;;4950159;29;20460;-93
2021/07/06 09:18:09;;;;;;;1.63;1.43;;;27.60;1.00;;;;;;4953741;29;20424;-90
2021/07/06 09:20:36;;;;;;;2.10;1.77;;;27.30;1.00;;;;;;4946137;29;20527;-90
2021/07/06 09:23:22;;;;;;;3.30;1.63;;;26.70;1.00;;;;;;4950023;29;20435;-90
2021/07/06 09:26:05;;;;;;;5.10;2.13;;;26.80;1.00;;;;;;4949656;29;20455;-90
2021/07/06 09:28:33;;;;;;;2.20;2.00;;;26.70;1.00;;;;;;4957384;28;20467;-91
2021/07/06 09:31:34;;;;;;;2.23;2.03;;;27.10;99.90;;;;;;4970117;28;20745;-91
2021/07/06 09:34:07;;;;;;;4.63;1.80;;;28.00;1.00;;;;;;4971525;28;20494;-91
2021/07/06 09:36:43;;;;;;;1.50;1.40;;;28.20;99.90;;;;;;4975488;28;20478;-92
2021/07/06 09:39:29;;;;;;;1.67;1.40;;;28.70;99.90;;;;;;4965704;29;20491;-96
2021/07/06 09:42:04;;;;;;;2.03;1.80;;;28.70;99.90;;;;;;4933293;29;20738;-91
2021/07/06 09:44:38;;;;;;;1.63;1.53;;;28.80;99.90;;;;;;4928662;29;20780;-92
2021/07/06 09:47:10;;;;;;;2.20;2.00;;;28.40;99.90;;;;;;4940520;29;20553;-92
2021/07/06 09:49:41;;;;;;;4.53;2.00;;;28.50;99.90;;;;;;4940954;29;20428;-94
2021/07/06 09:52:33;;;;;;;1.93;1.60;;;28.30;99.90;;;;;;4942088;29;20440;-92
2021/07/06 09:55:44;;;;;;;2.27;1.70;;;28.20;99.90;;;;;;4940004;29;20473;-94
2021/07/06 09:58:10;;;;;;;2.03;1.67;;;28.30;99.90;;;;;;4944050;29;20433;-91
2021/07/06 10:00:38;;;;;;;5.00;1.60;;;28.10;99.90;;;;;;4945033;29;20439;-91
2021/07/06 10:03:07;;;;;;;3.20;1.50;;;27.90;99.90;;;;;;4934878;29;20514;-93
2021/07/06 10:05:49;;;;;;;2.37;1.70;;;27.60;99.90;;;;;;4952012;29;20534;-93
2021/07/06 10:08:24;;;;;;;2.20;1.47;;;27.90;99.90;;;;;;4928203;29;20539;-94
2021/07/06 10:11:08;;;;;;;1.40;1.30;;;28.40;99.90;;;;;;4924560;29;20940;-92
2021/07/06 10:13:58;;;;;;;1.70;1.60;;;28.10;99.90;;;;;;4936410;29;20457;-93
2021/07/06 10:17:28;;;;;;;;;;;;;;;;;;;;;
2021/07/06 10:27:45;;;;;;;2.00;1.90;;;28.90;38.70;;;;;;4827001;29;20485;-93
2021/07/06 10:31:08;;;;;;;;;;;;;;;;;;;;;
2021/07/06 10:33:35;;;;;;;3.63;1.70;;;27.60;99.90;;;;;;4817310;29;20446;-89
2021/07/06 10:37:05;;;;;;;;;;;;;;;;;;;;;
2021/07/06 11:04:53;;;;;;;3.43;1.90;;;25.50;99.90;;;;;;4844593;29;20440;-92
2021/07/06 11:07:49;;;;;;;4.20;1.73;;;25.40;1.00;;;;;;4981233;23;20495;-88
2021/07/06 11:14:16;;;;;;;3.10;1.90;;;25.20;1.00;;;;;;4965085;28;20438;-89
2021/07/06 11:17:03;;;;;;;1.97;1.60;;;25.60;1.00;;;;;;4855563;29;20469;-91
2021/07/06 11:19:37;;;;;;;3.80;1.60;;;25.90;99.90;;;;;;4951648;23;20507;-90
2021/07/06 11:22:17;;;;;;;1.70;1.60;;;26.20;99.90;;;;;;4951809;28;20431;-91
2021/07/06 11:24:45;;;;;;;1.87;1.63;;;26.20;99.90;;;;;;4957042;28;20495;-91
2021/07/06 11:27:14;;;;;;;1.83;1.60;;;26.30;99.90;;;;;;4952395;28;20454;-90
2021/07/06 11:29:41;;;;;;;1.80;1.60;;;26.30;99.90;;;;;;4945748;29;20526;-91
2021/07/06 11:32:18;;;;;;;4.40;1.47;;;26.00;1.00;;;;;;4943024;29;20432;-91
2021/07/06 11:34:45;;;;;;;2.70;1.77;;;25.60;1.00;;;;;;4943899;29;20435;-90
2021/07/06 11:37:28;;;;;;;3.90;2.10;;;25.20;1.00;;;;;;4938387;29;20467;-93
2021/07/06 11:39:55;;;;;;;2.60;1.80;;;25.20;1.00;;;;;;4957248;29;20454;-94
2021/07/06 11:42:30;;;;;;;1.77;1.60;;;25.00;1.00;;;;;;5148002;23;20459;-94
2021/07/06 11:44:57;;;;;;;2.10;1.90;;;25.10;1.00;;;;;;4928005;29;20423;-93
2021/07/06 11:47:27;;;;;;;1.90;1.50;;;25.00;99.90;;;;;;4945517;29;20444;-94
2021/07/06 11:50:08;;;;;;;;;;;;;;;;;;;;;
2021/07/06 11:53:07;;;;;;;1.97;1.60;;;25.00;99.90;;;;;;4960075;29;20416;-93
2021/07/06 11:55:51;;;;;;;1.47;1.37;;;25.00;99.90;;;;;;4957586;29;20392;-95
2021/07/06 11:58:31;;;;;;;3.93;1.83;;;25.20;9.30;;;;;;5216284;23;20483;-92
2021/07/06 12:01:33;;;;;;;2.80;2.60;;;25.10;99.90;;;;;;4962946;28;20463;-91
2021/07/06 12:04:02;;;;;;;2.20;2.00;;;25.10;99.90;;;;;;4958408;29;20485;-91
2021/07/06 12:07:00;;;;;;;2.47;1.97;;;24.90;27.50;;;;;;4968699;28;20454;-92
2021/07/06 12:09:38;;;;;;;1.60;1.30;;;24.70;99.90;;;;;;4970711;28;20538;-91
2021/07/06 12:12:11;;;;;;;2.30;1.20;;;24.40;99.90;;;;;;4970251;28;20427;-92
2021/07/06 12:14:45;;;;;;;2.33;2.07;;;24.10;1.00;;;;;;4953053;28;20420;-94
2021/07/06 12:17:24;;;;;;;3.30;2.57;;;23.90;1.00;;;;;;4959513;28;20447;-91
2021/07/06 12:19:50;;;;;;;4.20;2.17;;;23.80;1.00;;;;;;5014022;23;20491;-94
2021/07/06 12:22:23;;;;;;;2.63;1.97;;;23.80;99.90;;;;;;4943151;28;20456;-94
2021/07/06 12:24:50;;;;;;;1.50;1.40;;;23.90;99.90;;;;;;5502951;23;20495;-93
2021/07/06 12:43:16;;;;;;;2.23;1.60;;;23.70;99.90;;;;;;5237351;23;20510;-92
2021/07/06 12:56:35;;;;;;;2.20;1.63;;;24.30;99.90;;;;;;4985155;23;20474;-92
2021/07/06 13:04:17;;;;;;;2.37;1.60;;;24.20;1.00;;;;;;4953421;28;20479;-94
2021/07/06 13:09:28;;;;;;;1.70;1.10;;;24.40;99.90;;;;;;5146647;23;20530;-89
2021/07/06 13:12:56;;;;;;;1.73;1.27;;;24.30;95.80;;;;;;4935640;29;20461;-92
2021/07/06 14:12:56;;;;;;;1.57;1.47;;;26.00;1.00;;;;;;4944158;29;20493;-92
2021/07/06 14:15:21;;;;;;;4.10;1.70;;;26.00;1.00;;;;;;4935531;29;20443;-92
2021/07/06 14:17:48;;;;;;;1.93;1.80;;;26.00;99.90;;;;;;4937668;29;20464;-90
2021/07/06 14:20:14;;;;;;;2.33;1.83;;;26.20;99.90;;;;;;4930603;29;20500;-91
2021/07/06 14:22:42;;;;;;;2.00;1.80;;;26.20;99.90;;;;;;4926476;29;20445;-91
2021/07/06 14:25:09;;;;;;;1.60;1.50;;;26.40;1.00;;;;;;4930633;29;20452;-91
2021/07/06 14:37:56;;;;;;;3.67;1.70;;;27.10;1.00;;;;;;4967362;23;20511;-93
2021/07/06 14:40:22;;;;;;;2.83;1.60;;;26.80;1.00;;;;;;4936122;29;21064;-92
2021/07/06 14:42:47;;;;;;;1.83;1.30;;;26.30;1.00;;;;;;4945080;29;20488;-92
2021/07/06 14:45:13;;;;;;;1.87;1.43;;;26.10;99.90;;;;;;4934174;23;20308;-91
2021/07/06 14:47:38;;;;;;;1.70;1.50;;;26.30;1.00;;;;;;4915851;29;20213;-96
2021/07/06 14:50:05;;;;;;;1.30;1.20;;;26.30;1.00;;;;;;4927947;28;20177;-94
2021/07/06 14:52:31;;;;;;;1.30;1.20;;;26.00;1.00;;;;;;4932538;29;20178;-95
2021/07/06 14:54:57;;;;;;;1.53;1.40;;;26.00;96.20;;;;;;4924496;29;20451;-96
2021/07/06 15:06:08;;;;;;;1.93;1.10;;;26.10;1.00;;;;;;4944002;23;20496;-93
2021/07/06 15:08:48;;;;;;;2.33;1.20;;;26.30;99.90;;;;;;4916642;29;20494;-95
2021/07/06 16:07:28;;;;;;;1.30;1.20;;;26.50;13.50;;;;;;4924526;29;20497;-91
2021/07/06 16:09:57;;;;;;;1.63;1.10;;;26.90;1.00;;;;;;4912722;29;20460;-88
2021/07/06 16:21:52;;;;;;;3.30;1.40;;;26.30;1.00;;;;;;4964765;28;20490;-89
2021/07/06 16:24:21;;;;;;;1.83;1.63;;;26.00;1.00;;;;;;4994454;23;20499;-87
2021/07/06 16:26:47;;;;;;;1.20;1.10;;;26.00;1.00;;;;;;4943177;29;20480;-87
2021/07/06 16:29:12;;;;;;;2.73;1.20;;;25.50;31.30;;;;;;4926600;29;20491;-87
2021/07/06 16:31:40;;;;;;;1.40;1.30;;;25.60;99.90;;;;;;4925116;29;20176;-91
2021/07/06 16:34:06;;;;;;;1.50;1.40;;;25.40;99.90;;;;;;4927733;29;20181;-90
2021/07/06 16:36:35;;;;;;;1.87;1.40;;;25.20;99.90;;;;;;4928148;29;20515;-91
2021/07/06 16:39:11;;;;;;;2.30;1.17;;;25.00;1.00;;;;;;4951967;23;20244;-87
2021/07/06 16:41:42;;;;;;;1.30;1.20;;;25.00;1.00;;;;;;4924152;29;21004;-86
2021/07/06 16:44:11;;;;;;;2.10;1.20;;;25.20;1.00;;;;;;4924992;29;20457;-90
2021/07/06 16:46:36;;;;;;;1.80;1.20;;;25.20;1.00;;;;;;4926185;29;20453;-88
2021/07/06 16:49:03;;;;;;;1.60;1.23;;;25.10;1.00;;;;;;4908021;29;20481;-87
2021/07/06 19:02:47;;;;;;;2.30;2.10;;;24.20;1.00;;;;;;4958676;29;20491;-91
2021/07/06 19:05:16;;;;;;;3.03;2.40;;;24.20;1.00;;;;;;4931257;29;20527;-90
2021/07/06 19:07:45;;;;;;;3.60;2.03;;;24.20;99.90;;;;;;4938405;29;20542;-92
2021/07/06 19:10:15;;;;;;;2.43;2.20;;;24.10;99.90;;;;;;4911221;29;20462;-92
2021/07/06 19:12:42;;;;;;;3.40;1.80;;;24.10;1.00;;;;;;4917789;29;20456;-92
2021/07/06 19:15:09;;;;;;;3.50;2.20;;;24.10;1.00;;;;;;4935597;29;20448;-91
2021/07/06 19:17:35;;;;;;;3.53;1.90;;;23.90;1.00;;;;;;4933845;29;20464;-91
2021/07/06 19:20:01;;;;;;;2.30;2.10;;;24.00;99.90;;;;;;4942120;29;20512;-90
2021/07/06 19:22:26;;;;;;;1.60;1.50;;;24.00;99.90;;;;;;4940670;29;20209;-91
2021/07/06 19:24:52;;;;;;;2.60;2.17;;;23.90;99.90;;;;;;4942430;28;20537;-91
2021/07/06 19:27:18;;;;;;;2.53;2.17;;;23.90;99.90;;;;;;4934108;29;20442;-90
2021/07/06 19:32:32;;;;;;;3.07;2.17;;;23.80;1.00;;;;;;4955193;28;20439;-90
2021/07/06 19:34:59;;;;;;;3.00;1.90;;;23.30;1.00;;;;;;4925857;29;20969;-90
2021/07/06 19:37:25;;;;;;;1.67;1.40;;;23.20;1.00;;;;;;4917673;29;20434;-90
2021/07/06 19:39:52;;;;;;;2.70;1.73;;;23.30;1.00;;;;;;4917702;29;20457;-89
2021/07/06 19:42:18;;;;;;;3.60;1.80;;;23.40;54.00;;;;;;4912051;29;20434;-90
2021/07/06 19:44:43;;;;;;;2.60;2.33;;;23.40;99.90;;;;;;4921285;29;20453;-92
2021/07/06 19:47:12;;;;;;;1.87;1.47;;;23.30;1.00;;;;;;4916543;29;20189;-92
2021/07/06 19:49:38;;;;;;;1.57;1.37;;;23.20;99.90;;;;;;4921302;29;20209;-92
2021/07/06 19:52:08;;;;;;;1.70;1.53;;;23.10;1.00;;;;;;4921040;29;20514;-91
2021/07/06 19:54:36;;;;;;;2.90;2.20;;;23.10;17.40;;;;;;4914917;29;20512;-91
2021/07/06 19:57:02;;;;;;;3.37;2.37;;;23.30;1.00;;;;;;4930855;29;20441;-92
2021/07/06 19:59:31;;;;;;;1.97;1.70;;;23.40;1.00;;;;;;4921136;29;20466;-93
2021/07/06 20:01:59;;;;;;;2.17;1.50;;;23.40;1.00;;;;;;4921917;29;20464;-91
2021/07/06 20:04:25;;;;;;;1.83;1.43;;;23.30;99.90;;;;;;4924149;29;20505;-92
2021/07/06 20:06:58;;;;;;;1.20;1.10;;;23.20;1.00;;;;;;4922418;29;20460;-92
2021/07/06 20:09:24;;;;;;;4.00;1.57;;;23.10;1.00;;;;;;4939111;29;20228;-93
2021/07/06 20:11:52;;;;;;;2.87;1.60;;;23.00;1.00;;;;;;4943263;28;20477;-90
2021/07/06 20:14:18;;;;;;;2.10;1.20;;;22.80;99.90;;;;;;4939575;29;20193;-94
2021/07/06 20:16:43;;;;;;;4.27;1.90;;;23.00;70.60;;;;;;4941043;29;20496;-93
2021/07/06 20:19:12;;;;;;;4.23;1.63;;;23.00;99.90;;;;;;4939012;29;20217;-93
2021/07/06 20:21:38;;;;;;;2.23;1.47;;;23.10;99.90;;;;;;4937010;29;20169;-93
2021/07/06 20:24:04;;;;;;;2.20;2.00;;;23.00;1.00;;;;;;4936392;29;20437;-93
2021/07/06 20:26:29;;;;;;;2.20;1.93;;;22.90;99.90;;;;;;4935209;29;20193;-93
2021/07/06 20:28:55;;;;;;;1.70;1.50;;;22.90;9.10;;;;;;4936424;29;20267;-94
2021/07/06 20:31:21;;;;;;;1.90;1.70;;;22.90;99.90;;;;;;4939421;29;20255;-92
2021/07/06 20:33:46;;;;;;;1.30;1.17;;;22.90;99.90;;;;;;4942818;28;20185;-92
2021/07/06 20:36:12;;;;;;;4.80;2.10;;;23.00;99.90;;;;;;4939118;29;20661;-91
2021/07/06 20:38:38;;;;;;;2.63;1.70;;;23.10;99.90;;;;;;4942069;28;20189;-90
2021/07/06 20:41:03;;;;;;;1.73;1.30;;;23.00;99.90;;;;;;4940488;29;20256;-91
2021/07/06 20:43:31;;;;;;;3.40;1.90;;;23.00;99.90;;;;;;4932189;29;20189;-92
2021/07/06 20:45:58;;;;;;;1.70;1.60;;;23.00;99.90;;;;;;4931001;29;20203;-93
2021/07/06 20:48:29;;;;;;;3.57;1.90;;;22.90;99.90;;;;;;4928036;29;20469;-91
2021/07/06 20:50:59;;;;;;;1.90;1.40;;;23.00;99.90;;;;;;4922545;29;20475;-92
2021/07/06 20:53:24;;;;;;;2.50;2.30;;;23.00;1.00;;;;;;4925026;29;20423;-93
2021/07/06 20:55:50;;;;;;;2.57;1.20;;;22.90;1.00;;;;;;4924962;29;20429;-93
2021/07/06 20:58:15;;;;;;;3.30;1.87;;;22.90;1.00;;;;;;4925426;29;20220;-94
2021/07/06 21:00:44;;;;;;;1.97;1.30;;;22.80;1.00;;;;;;4924844;29;20231;-92
2021/07/06 21:03:10;;;;;;;2.00;1.80;;;22.60;1.00;;;;;;4927168;29;20297;-94
2021/07/06 21:05:35;;;;;;;1.47;1.23;;;22.50;99.90;;;;;;4925818;29;20465;-92
2021/07/06 21:08:02;;;;;;;4.27;1.53;;;22.50;99.90;;;;;;4918781;29;20509;-91
2021/07/06 21:10:27;;;;;;;4.43;1.53;;;22.50;99.90;;;;;;4905980;29;20205;-93
2021/07/06 21:12:53;;;;;;;1.80;1.30;;;22.30;99.90;;;;;;4910086;29;20804;-91
2021/07/06 21:15:19;;;;;;;1.30;1.20;;;22.30;99.90;;;;;;4910164;29;20197;-92
2021/07/06 21:17:44;;;;;;;3.17;1.63;;;22.10;99.90;;;;;;4904808;29;20196;-91
2021/07/06 21:20:13;;;;;;;3.80;1.30;;;22.00;40.30;;;;;;4903097;29;20220;-90
2021/07/06 21:22:40;;;;;;;3.40;2.10;;;21.70;1.00;;;;;;4920373;29;20718;-90
2021/07/06 21:25:06;;;;;;;2.10;1.33;;;21.50;1.00;;;;;;4902899;29;20444;-91
2021/07/06 21:27:31;;;;;;;17.77;2.30;;;21.50;1.00;;;;;;4902615;29;20972;-90
2021/07/06 21:29:57;;;;;;;2.60;1.30;;;21.50;1.00;;;;;;4903052;29;20453;-89
2021/07/06 21:32:22;;;;;;;2.83;1.70;;;21.40;1.00;;;;;;4903938;29;20196;-90
2021/07/06 21:34:48;;;;;;;2.77;1.43;;;21.50;99.90;;;;;;4922499;29;20280;-90
2021/07/06 21:37:15;;;;;;;2.43;1.10;;;21.40;99.90;;;;;;4902777;29;20224;-89
2021/07/06 21:39:40;;;;;;;6.43;1.70;;;21.40;1.00;;;;;;4902538;29;20517;-90
2021/07/06 21:42:06;;;;;;;3.90;1.10;;;21.40;1.00;;;;;;4903215;29;20437;-91
2021/07/06 21:44:31;;;;;;;6.83;1.87;;;21.20;1.00;;;;;;4903340;29;20197;-93
2021/07/06 21:46:57;;;;;;;1.83;1.50;;;21.20;1.00;;;;;;4905095;29;20189;-93
2021/07/06 21:49:23;;;;;;;6.13;1.83;;;21.20;99.90;;;;;;4907256;29;20224;-92
2021/07/06 21:51:50;;;;;;;2.70;1.20;;;21.10;99.90;;;;;;4908141;29;20197;-93
2021/07/06 21:54:16;;;;;;;2.90;1.60;;;21.10;99.90;;;;;;4907985;29;20188;-92
2021/07/06 21:56:42;;;;;;;4.97;1.57;;;21.10;99.90;;;;;;4905664;29;20477;-93
2021/07/06 21:59:07;;;;;;;5.00;2.30;;;21.20;99.90;;;;;;4903164;29;20209;-91
2021/07/06 22:01:33;;;;;;;4.00;1.57;;;21.30;99.90;;;;;;4902981;29;20729;-92
2021/07/06 22:03:59;;;;;;;2.23;1.50;;;21.30;1.00;;;;;;4906111;29;20189;-93
2021/07/06 22:06:24;;;;;;;3.20;1.40;;;21.30;1.00;;;;;;4909614;29;20186;-93
2021/07/06 22:08:50;;;;;;;4.37;1.50;;;21.20;1.00;;;;;;4908518;29;20217;-93
2021/07/06 22:11:16;;;;;;;1.17;1.07;;;21.20;6.50;;;;;;4907667;29;20193;-92
2021/07/06 22:13:41;;;;;;;3.40;1.30;;;21.20;1.00;;;;;;4908382;29;20189;-92
2021/07/06 22:16:07;;;;;;;4.87;1.70;;;21.10;1.00;;;;;;4909962;29;20185;-92
2021/07/06 22:18:32;;;;;;;3.77;1.47;;;21.00;95.00;;;;;;4907501;29;20185;-90
2021/07/06 22:20:58;;;;;;;3.10;1.40;;;21.00;91.00;;;;;;4901267;29;20185;-92
2021/07/06 22:23:23;;;;;;;2.33;1.57;;;21.00;99.90;;;;;;4902312;29;20193;-91
2021/07/06 22:25:49;;;;;;;2.63;1.50;;;21.00;99.90;;;;;;4901463;29;20189;-91
2021/07/06 22:28:16;;;;;;;3.30;1.70;;;20.80;99.90;;;;;;4904012;29;20201;-92
2021/07/06 22:30:41;;;;;;;3.70;1.70;;;20.80;99.90;;;;;;4903988;29;20201;-90
2021/07/06 22:33:08;;;;;;;1.93;1.80;;;20.80;99.90;;;;;;4911278;29;20421;-94
2021/07/06 22:35:34;;;;;;;3.30;1.70;;;20.60;1.00;;;;;;4918668;29;20182;-92
2021/07/06 22:38:00;;;;;;;5.33;1.67;;;20.60;1.00;;;;;;4921489;29;20530;-92
2021/07/06 22:40:26;;;;;;;2.53;2.17;;;20.60;1.00;;;;;;4922580;29;21004;-93
2021/07/06 22:42:51;;;;;;;3.70;1.63;;;20.50;1.00;;;;;;4916648;29;20456;-94
2021/07/06 22:45:17;;;;;;;3.20;2.00;;;20.40;99.90;;;;;;4913526;29;20650;-94
2021/07/06 22:47:43;;;;;;;2.10;1.50;;;20.40;1.00;;;;;;4914868;29;20237;-94
2021/07/06 22:50:09;;;;;;;4.37;1.57;;;20.40;1.00;;;;;;4916468;29;20269;-94
2021/07/06 22:52:35;;;;;;;2.70;1.40;;;20.40;1.00;;;;;;4922122;29;20441;-92
2021/07/06 22:55:01;;;;;;;3.77;1.50;;;20.10;1.00;;;;;;4921029;29;20501;-93
2021/07/06 22:57:31;;;;;;;1.97;1.60;;;20.10;1.00;;;;;;4922912;29;20185;-91
2021/07/06 23:00:03;;;;;;;3.63;1.90;;;19.90;1.00;;;;;;4923446;29;20202;-92
2021/07/06 23:02:29;;;;;;;2.03;1.30;;;19.90;1.00;;;;;;4918357;29;20481;-93
2021/07/06 23:04:54;;;;;;;4.90;1.87;;;19.90;1.00;;;;;;4910597;29;20808;-92
2021/07/06 23:07:20;;;;;;;4.23;1.50;;;20.00;1.00;;;;;;4914285;29;20185;-92
2021/07/06 23:09:45;;;;;;;1.83;1.63;;;19.90;99.90;;;;;;4920332;29;20212;-92
2021/07/06 23:12:14;;;;;;;3.40;1.50;;;19.80;1.00;;;;;;4917592;29;20185;-92
2021/07/06 23:14:40;;;;;;;3.60;1.37;;;19.90;1.00;;;;;;4912760;29;20182;-93
2021/07/06 23:17:06;;;;;;;3.27;1.43;;;20.00;99.90;;;;;;4914090;29;20452;-93
2021/07/06 23:19:31;;;;;;;3.30;1.27;;;19.90;99.90;;;;;;4916266;29;20702;-92
2021/07/06 23:21:57;;;;;;;2.83;1.20;;;19.80;99.90;;;;;;4915635;29;20485;-92
2021/07/06 23:24:22;;;;;;;2.33;1.30;;;19.80;99.90;;;;;;4915619;29;20189;-93
2021/07/06 23:26:48;;;;;;;2.33;0.90;;;19.70;99.90;;;;;;4919143;29;20249;-92
2021/07/06 23:29:13;;;;;;;1.87;1.23;;;19.60;99.90;;;;;;4921029;29;20244;-92
2021/07/06 23:31:39;;;;;;;1.37;1.27;;;19.50;99.90;;;;;;4921513;29;20200;-92
2021/07/06 23:34:05;;;;;;;1.53;0.97;;;19.60;99.90;;;;;;4918350;29;20257;-92
2021/07/06 23:36:30;;;;;;;4.03;2.70;;;19.70;99.90;;;;;;4905877;29;20189;-91
2021/07/06 23:38:57;;;;;;;3.73;1.10;;;19.60;99.90;;;;;;4901984;29;20208;-92
2021/07/06 23:41:22;;;;;;;2.20;1.30;;;19.70;99.90;;;;;;4900962;29;20249;-92
2021/07/06 23:43:48;;;;;;;3.73;1.40;;;19.90;93.60;;;;;;4900856;29;20433;-92
2021/07/06 23:46:15;;;;;;;3.00;1.50;;;19.90;99.90;;;;;;4900605;29;20237;-91
2021/07/06 23:48:42;;;;;;;3.77;1.40;;;19.80;99.90;;;;;;4917641;29;20742;-92
2021/07/06 23:51:09;;;;;;;2.47;1.40;;;19.70;99.90;;;;;;4901937;29;21070;-92
2021/07/06 23:53:35;;;;;;;3.47;1.40;;;19.70;99.90;;;;;;4901389;29;20446;-92
2021/07/06 23:56:01;;;;;;;1.33;1.23;;;19.50;99.90;;;;;;4901120;29;20873;-91
2021/07/06 23:58:26;;;;;;;3.30;1.30;;;19.50;99.90;;;;;;4901627;29;20434;-91
